• Join FlightAware (Why Join?)
  • Login
  • US Flag 
05:46AM EST


 

Airport Tracker/Info


-or-


 

Live Flight TrackerFlight Track Log ✈ N125GH ✈ 12-Nov-2013 ✈ KHOU - SASA / SLA

Flight Track Log - Related Links

Times and Time Zones

All times are in EST time to prevent confusion due to time zone crossing. See the N125GH flight status page for this flight to view local times or setup timezone preferences in your user account.

Time Position Orientation Groundspeed Altitude Reporting Facility
EST Latitude Longitude Course Direction KTS MPH feet Rate Location/Type
03:27PM 29.6544 -95.2892 North 161 185 900  Level Houston Center
03:28PM 29.6758 -95.2889 North 213 245 2,200 3,000 Climbing Houston Center
03:28PM 29.6806 -95.2547 81° East 211 243 4,000 2,580 Climbing Houston Center
03:29PM 29.6592 -95.2331 139° Southeast 233 268 4,900 960 Climbing Houston Center
03:29PM 29.6167 -95.2217 167° South 278 320 5,000 60 Climbing Houston Center
03:30PM 29.5761 -95.2006 156° South 273 314 5,000 60 Level Houston Center
03:31PM 29.5247 -95.1436 136° Southeast 262 302 5,100 660 Climbing Houston Center
03:32PM 29.4736 -95.0869 136° Southeast 259 298 6,400 1,560 Climbing Houston Center
03:33PM 29.4183 -95.0267 136° Southeast 269 310 8,400 2,160 Climbing Houston Center
03:34PM 29.3486 -94.9525 137° Southeast 283 326 10,900 2,220 Climbing Houston Center
03:35PM 29.2747 -94.8736 137° Southeast 356 410 13,100 2,460 Climbing Houston Center
03:36PM 29.1850 -94.8097 148° Southeast 377 434 16,000 2,400 Climbing Houston Center
03:37PM 29.0894 -94.7453 149° Southeast 393 452 18,100 2,220 Climbing Houston Center
03:38PM 28.9911 -94.6781 149° Southeast 408 470 20,700 2,160 Climbing Houston Center
03:39PM 28.8881 -94.6083 149° Southeast 421 484 22,700 1,680 Climbing Houston Center
03:40PM 28.7614 -94.5247 150° Southeast 435 501 24,200 1,440 Climbing Houston Center
03:41PM 28.6417 -94.4786 161° South 448 516 25,700 1,440 Climbing Houston Center
03:42PM 28.5211 -94.4378 163° South 453 521 27,200 1,440 Climbing Houston Center
03:43PM 28.4000 -94.3953 163° South 455 524 28,700 1,440 Climbing Houston Center
03:44PM 28.2806 -94.3542 163° South 450 518 30,200 1,320 Climbing Houston Center
03:45PM 28.1597 -94.3153 164° South 450 518 31,500 1,440 Climbing Houston Center
03:46PM 28.0125 -94.2631 163° South 459 528 33,300 1,800 Climbing Houston Center
03:47PM 27.8906 -94.2225 164° South 458 527 35,300 1,680 Climbing Houston Center
03:48PM 27.7692 -94.1822 164° South 454 522 36,800 1,500 Climbing Houston Center
03:49PM 27.6492 -94.1406 163° South 453 521 38,400 1,500 Climbing Houston Center
03:50PM 27.5303 -94.0994 163° South 447 514 40,000 1,200 Climbing Houston Center
03:51PM 27.3917 -94.0525 163° South 436 502 41,000 480 Climbing Houston Center
03:52PM 27.2703 -94.0128 164° South 448 516 41,000  Level Houston Center
03:53PM 27.1467 -93.9711 163° South 459 528 41,000  Level Houston Center
03:54PM 27.0264 -93.9303 163° South 454 522 41,000  Level Houston Center
03:55PM 26.9075 -93.8908 164° South 447 514 41,000  Level Houston Center
03:57PM 26.7861 -93.8489 163° South 453 521 41,000  Level Houston Center
03:58PM 26.6494 -93.8047 164° South 455 524 41,000  Level Houston Center
03:59PM 26.5292 -93.7603 162° South 454 522 41,000  Level Houston Center
04:00PM 26.4144 -93.7008 155° Southeast 453 521 41,000  Level Houston Center
04:01PM 26.2786 -93.6186 152° Southeast 455 524 41,000  Level Houston Center
04:02PM 26.1878 -93.5600 150° Southeast 458 527 41,000  Level Houston Center
04:04PM 25.9843 -93.4303 150° Southeast  Level FlightAware Approximate
04:11PM 25.1935 -92.9461 152° Southeast  Level FlightAware Approximate
04:12PM 25.0800 -92.8782 152° Southeast  Level FlightAware Approximate
04:13PM 24.9665 -92.8104 152° Southeast  Level FlightAware Approximate
04:14PM 24.8529 -92.7427 152° Southeast  Level FlightAware Approximate
04:15PM 24.7393 -92.6752 152° Southeast  Level FlightAware Approximate
04:16PM 24.6257 -92.6078 152° Southeast  Level FlightAware Approximate
04:17PM 24.5121 -92.5405 152° Southeast  Level FlightAware Approximate
04:18PM 24.3934 -92.4848 157° South  Level FlightAware Approximate
04:19PM 24.2742 -92.4305 157° South  Level FlightAware Approximate
04:20PM 24.1551 -92.3760 157° South  Level FlightAware Approximate
04:21PM 24.0359 -92.3215 157° South  Level FlightAware Approximate
04:22PM 23.9168 -92.2672 157° South  Level FlightAware Approximate
04:23PM 23.7976 -92.2129 157° South  Level FlightAware Approximate
04:24PM 23.6785 -92.1588 157° South  Level FlightAware Approximate
04:25PM 23.5593 -92.1047 157° South  Level FlightAware Approximate
04:26PM 23.4400 -92.0508 157° South  Level FlightAware Approximate
04:27PM 23.3208 -91.9969 157° South  Level FlightAware Approximate
04:28PM 23.2015 -91.9434 158° South  Level FlightAware Approximate
04:29PM 23.0816 -91.8914 158° South  Level FlightAware Approximate
04:30PM 22.9617 -91.8395 158° South  Level FlightAware Approximate
04:31PM 22.8417 -91.7877 158° South  Level FlightAware Approximate
04:32PM 22.7218 -91.7359 158° South  Level FlightAware Approximate
04:33PM 22.6018 -91.6843 158° South  Level FlightAware Approximate
04:34PM 22.4818 -91.6327 158° South  Level FlightAware Approximate
04:35PM 22.3619 -91.5812 158° South  Level FlightAware Approximate
04:36PM 22.2423 -91.5285 158° South  Level FlightAware Approximate
04:37PM 22.1228 -91.4760 158° South  Level FlightAware Approximate
04:38PM 22.0033 -91.4235 158° South  Level FlightAware Approximate
04:39PM 21.8837 -91.3711 158° South  Level FlightAware Approximate
04:40PM 21.7641 -91.3188 158° South  Level FlightAware Approximate
04:41PM 21.6445 -91.2665 158° South  Level FlightAware Approximate
04:42PM 21.5248 -91.2144 158° South  Level FlightAware Approximate
04:43PM 21.4052 -91.1624 158° South  Level FlightAware Approximate
04:44PM 21.2853 -91.1111 161° South  Level FlightAware Approximate
04:45PM 21.1635 -91.0653 158° South  Level FlightAware Approximate
04:46PM 21.0434 -91.0144 158° South  Level FlightAware Approximate
04:47PM 20.9234 -90.9636 158° South  Level FlightAware Approximate
04:48PM 20.8033 -90.9129 158° South  Level FlightAware Approximate
04:49PM 20.6833 -90.8623 159° South  Level FlightAware Approximate
04:50PM 20.5631 -90.8118 159° South  Level FlightAware Approximate
04:51PM 20.4430 -90.7614 159° South  Level FlightAware Approximate
04:52PM 20.3228 -90.7111 159° South  Level FlightAware Approximate
04:53PM 20.2027 -90.6608 159° South  Level FlightAware Approximate
04:54PM 20.0825 -90.6107 159° South  Level FlightAware Approximate
04:55PM 19.9623 -90.5606 159° South  Level FlightAware Approximate
04:56PM 19.8421 -90.5106 159° South  Level FlightAware Approximate
04:57PM 19.7167 -90.4799 169° South  Level FlightAware Approximate
04:58PM 19.5898 -90.4545 169° South  Level FlightAware Approximate
04:59PM 19.4630 -90.4291 169° South  Level FlightAware Approximate
05:00PM 19.3361 -90.4038 169° South  Level FlightAware Approximate
05:01PM 19.2093 -90.3785 169° South  Level FlightAware Approximate
05:02PM 19.0824 -90.3532 169° South  Level FlightAware Approximate
05:03PM 18.9556 -90.3280 169° South  Level FlightAware Approximate
05:04PM 18.8287 -90.3028 169° South  Level FlightAware Approximate
05:05PM 18.7019 -90.2777 169° South  Level FlightAware Approximate
05:06PM 18.5750 -90.2526 169° South  Level FlightAware Approximate
05:07PM 18.4481 -90.2275 169° South  Level FlightAware Approximate
05:08PM 18.3213 -90.2025 169° South  Level FlightAware Approximate
05:09PM 18.1944 -90.1775 169° South  Level FlightAware Approximate
05:10PM 18.0675 -90.1525 169° South  Level FlightAware Approximate
05:11PM 17.9406 -90.1276 169° South  Level FlightAware Approximate
05:12PM 17.8137 -90.1027 169° South  Level FlightAware Approximate
05:13PM 17.6892 -90.0791 156° South  Level FlightAware Approximate
05:14PM 17.5715 -90.0234 156° South  Level FlightAware Approximate
05:15PM 17.4539 -89.9677 156° South  Level FlightAware Approximate
05:16PM 17.3362 -89.9121 156° South  Level FlightAware Approximate
05:17PM 17.2185 -89.8566 156° South  Level FlightAware Approximate
05:18PM 17.1008 -89.8012 156° South  Level FlightAware Approximate
05:19PM 16.9831 -89.7458 156° South  Level FlightAware Approximate
05:20PM 16.8653 -89.6905 156° South  Level FlightAware Approximate
05:21PM 16.7481 -89.6341 155° Southeast  Level FlightAware Approximate
05:22PM 16.6309 -89.5776 155° Southeast  Level FlightAware Approximate
05:23PM 16.5137 -89.5212 155° Southeast  Level FlightAware Approximate
05:24PM 16.3965 -89.4648 155° Southeast  Level FlightAware Approximate
05:25PM 16.2793 -89.4085 155° Southeast  Level FlightAware Approximate
05:26PM 16.1620 -89.3522 155° Southeast  Level FlightAware Approximate
05:27PM 16.0448 -89.2961 155° Southeast  Level FlightAware Approximate
05:28PM 15.9271 -89.2410 156° South  Level FlightAware Approximate
05:29PM 15.8089 -89.1870 156° South  Level FlightAware Approximate
05:30PM 15.6907 -89.1331 156° South  Level FlightAware Approximate
05:31PM 15.5725 -89.0793 156° South  Level FlightAware Approximate
05:32PM 15.4543 -89.0256 156° South  Level FlightAware Approximate
05:33PM 15.3360 -88.9718 156° South  Level FlightAware Approximate
05:34PM 15.2178 -88.9182 156° South  Level FlightAware Approximate
05:35PM 15.0995 -88.8646 156° South  Level FlightAware Approximate
05:36PM 14.9812 -88.8111 156° South  Level FlightAware Approximate
05:37PM 14.8629 -88.7577 156° South  Level FlightAware Approximate
05:38PM 14.7446 -88.7042 156° South  Level FlightAware Approximate
05:39PM 14.6263 -88.6509 156° South  Level FlightAware Approximate
05:40PM 14.5080 -88.5976 156° South  Level FlightAware Approximate
05:41PM 14.3897 -88.5444 156° South  Level FlightAware Approximate
05:42PM 14.2713 -88.4912 156° South  Level FlightAware Approximate
05:43PM 14.1531 -88.4378 156° South  Level FlightAware Approximate
05:44PM 14.0349 -88.3843 156° South  Level FlightAware Approximate
05:45PM 13.9167 -88.3308 156° South  Level FlightAware Approximate
05:46PM 13.7985 -88.2773 156° South  Level FlightAware Approximate
05:47PM 13.6803 -88.2239 156° South  Level FlightAware Approximate
05:48PM 13.5621 -88.1706 156° South  Level FlightAware Approximate
05:49PM 13.4439 -88.1173 156° South  Level FlightAware Approximate
05:50PM 13.3257 -88.0641 156° South  Level FlightAware Approximate
05:51PM 13.2074 -88.0109 156° South  Level FlightAware Approximate
05:52PM 13.0891 -87.9578 156° South  Level FlightAware Approximate
05:53PM 12.9709 -87.9047 156° South  Level FlightAware Approximate
05:54PM 12.8526 -87.8517 156° South  Level FlightAware Approximate
05:55PM 12.7343 -87.7987 156° South  Level FlightAware Approximate
05:56PM 12.6159 -87.7461 157° South  Level FlightAware Approximate
05:57PM 12.4973 -87.6938 157° South  Level FlightAware Approximate
05:58PM 12.3788 -87.6415 157° South  Level FlightAware Approximate
05:59PM 12.2602 -87.5892 157° South  Level FlightAware Approximate
06:00PM 12.1417 -87.5370 157° South  Level FlightAware Approximate
06:01PM 12.0231 -87.4848 157° South  Level FlightAware Approximate
06:02PM 11.9045 -87.4327 157° South  Level FlightAware Approximate
06:03PM 11.7859 -87.3806 157° South  Level FlightAware Approximate
06:04PM 11.6673 -87.3286 157° South  Level FlightAware Approximate
06:05PM 11.5487 -87.2766 157° South  Level FlightAware Approximate
06:06PM 11.4301 -87.2246 157° South  Level FlightAware Approximate
06:07PM 11.3115 -87.1727 157° South  Level FlightAware Approximate
06:08PM 11.1929 -87.1208 157° South  Level FlightAware Approximate
06:09PM 11.0743 -87.0688 157° South  Level FlightAware Approximate
06:10PM 10.9558 -87.0168 157° South  Level FlightAware Approximate
06:11PM 10.8372 -86.9649 157° South  Level FlightAware Approximate
06:12PM 10.7186 -86.9129 157° South  Level FlightAware Approximate
06:13PM 10.6001 -86.8611 157° South  Level FlightAware Approximate
06:14PM 10.4815 -86.8092 157° South  Level FlightAware Approximate
06:15PM 10.3629 -86.7574 157° South  Level FlightAware Approximate
06:16PM 10.2443 -86.7056 157° South  Level FlightAware Approximate
06:17PM 10.1257 -86.6539 157° South  Level FlightAware Approximate
06:18PM 10.0068 -86.6028 157° South  Level FlightAware Approximate
06:19PM 9.8879 -86.5517 157° South  Level FlightAware Approximate
06:20PM 9.7690 -86.5007 157° South  Level FlightAware Approximate
06:21PM 9.6502 -86.4497 157° South  Level FlightAware Approximate
06:22PM 9.5312 -86.3987 157° South  Level FlightAware Approximate
06:23PM 9.4123 -86.3478 157° South  Level FlightAware Approximate
06:24PM 9.2934 -86.2969 157° South  Level FlightAware Approximate
06:25PM 9.1745 -86.2461 157° South  Level FlightAware Approximate
06:26PM 9.0556 -86.1952 157° South  Level FlightAware Approximate
06:27PM 8.9370 -86.1435 157° South  Level FlightAware Approximate
06:28PM 8.8185 -86.0919 157° South  Level FlightAware Approximate
06:29PM 8.6999 -86.0404 157° South  Level FlightAware Approximate
06:30PM 8.5813 -85.9888 157° South  Level FlightAware Approximate
06:31PM 8.4627 -85.9373 157° South  Level FlightAware Approximate
06:32PM 8.3441 -85.8858 157° South  Level FlightAware Approximate
06:33PM 8.2254 -85.8345 157° South  Level FlightAware Approximate
06:34PM 8.1067 -85.7832 157° South  Level FlightAware Approximate
06:35PM 7.9880 -85.7320 157° South  Level FlightAware Approximate
06:36PM 7.8693 -85.6808 157° South  Level FlightAware Approximate
06:37PM 7.7506 -85.6297 157° South  Level FlightAware Approximate
06:38PM 7.6319 -85.5785 157° South  Level FlightAware Approximate
06:39PM 7.5132 -85.5274 157° South  Level FlightAware Approximate
06:40PM 7.3945 -85.4764 157° South  Level FlightAware Approximate
06:41PM 7.2757 -85.4253 157° South  Level FlightAware Approximate
06:42PM 7.1570 -85.3743 157° South  Level FlightAware Approximate
06:43PM 7.0382 -85.3233 157° South  Level FlightAware Approximate
06:44PM 6.9195 -85.2724 157° South  Level FlightAware Approximate
06:45PM 6.8007 -85.2214 157° South  Level FlightAware Approximate
06:46PM 6.6820 -85.1705 157° South  Level FlightAware Approximate
06:47PM 6.5632 -85.1196 157° South  Level FlightAware Approximate
06:48PM 6.4444 -85.0688 157° South  Level FlightAware Approximate
06:49PM 6.3256 -85.0179 157° South  Level FlightAware Approximate
06:50PM 6.2069 -84.9671 157° South  Level FlightAware Approximate
06:51PM 6.0881 -84.9163 157° South  Level FlightAware Approximate
06:52PM 5.9693 -84.8655 157° South  Level FlightAware Approximate
06:53PM 5.8505 -84.8148 157° South  Level FlightAware Approximate
06:54PM 5.7317 -84.7641 157° South  Level FlightAware Approximate
06:55PM 5.6129 -84.7133 157° South  Level FlightAware Approximate
06:56PM 5.4941 -84.6627 157° South  Level FlightAware Approximate
06:57PM 5.3752 -84.6120 157° South  Level FlightAware Approximate
06:58PM 5.2564 -84.5613 157° South  Level FlightAware Approximate
06:59PM 5.1376 -84.5107 157° South  Level FlightAware Approximate
07:00PM 5.0188 -84.4601 157° South  Level FlightAware Approximate
07:01PM 4.8999 -84.4095 157° South  Level FlightAware Approximate
07:02PM 4.7811 -84.3589 157° South  Level FlightAware Approximate
07:03PM 4.6623 -84.3084 157° South  Level FlightAware Approximate
07:04PM 4.5434 -84.2579 157° South  Level FlightAware Approximate
07:05PM 4.4246 -84.2073 157° South  Level FlightAware Approximate
07:06PM 4.3057 -84.1568 157° South  Level FlightAware Approximate
07:07PM 4.1869 -84.1063 157° South  Level FlightAware Approximate
07:08PM 4.0680 -84.0559 157° South  Level FlightAware Approximate
07:09PM 3.9491 -84.0054 157° South  Level FlightAware Approximate
07:10PM 3.8303 -83.9550 157° South  Level FlightAware Approximate
07:11PM 3.7114 -83.9045 157° South  Level FlightAware Approximate
07:12PM 3.5925 -83.8541 157° South  Level FlightAware Approximate
07:13PM 3.4737 -83.8037 157° South  Level FlightAware Approximate
07:14PM 3.3548 -83.7533 157° South  Level FlightAware Approximate
07:15PM 3.2359 -83.7030 157° South  Level FlightAware Approximate
07:16PM 3.1170 -83.6526 157° South  Level FlightAware Approximate
07:17PM 2.9982 -83.6022 157° South  Level FlightAware Approximate
07:18PM 2.8793 -83.5519 157° South  Level FlightAware Approximate
07:19PM 2.7604 -83.5016 157° South  Level FlightAware Approximate
07:20PM 2.6415 -83.4513 157° South  Level FlightAware Approximate
07:21PM 2.5226 -83.4009 157° South  Level FlightAware Approximate
07:22PM 2.4037 -83.3506 157° South  Level FlightAware Approximate
07:23PM 2.2848 -83.3003 157° South  Level FlightAware Approximate
07:24PM 2.1659 -83.2501 157° South  Level FlightAware Approximate
07:25PM 2.0470 -83.1998 157° South  Level FlightAware Approximate
07:26PM 1.9281 -83.1495 157° South  Level FlightAware Approximate
07:27PM 1.8092 -83.0992 157° South  Level FlightAware Approximate
07:28PM 1.6903 -83.0490 157° South  Level FlightAware Approximate
07:29PM 1.5714 -82.9987 157° South  Level FlightAware Approximate
07:30PM 1.4525 -82.9485 157° South  Level FlightAware Approximate
07:31PM 1.3338 -82.8979 157° South  Level FlightAware Approximate
07:32PM 1.2151 -82.8472 157° South  Level FlightAware Approximate
07:33PM 1.0964 -82.7964 157° South  Level FlightAware Approximate
07:34PM 0.9777 -82.7457 157° South  Level FlightAware Approximate
07:35PM 0.8590 -82.6949 157° South  Level FlightAware Approximate
07:36PM 0.7403 -82.6442 157° South  Level FlightAware Approximate
07:37PM 0.6216 -82.5935 157° South  Level FlightAware Approximate
07:38PM 0.5030 -82.5428 157° South  Level FlightAware Approximate
07:39PM 0.3843 -82.4920 157° South  Level FlightAware Approximate
07:40PM 0.2656 -82.4413 157° South  Level FlightAware Approximate
07:41PM 0.1469 -82.3906 157° South  Level FlightAware Approximate
07:42PM 0.0282 -82.3399 157° South  Level FlightAware Approximate
07:43PM -0.0905 -82.2892 157° South  Level FlightAware Approximate
07:44PM -0.2092 -82.2384 157° South  Level FlightAware Approximate
07:45PM -0.3279 -82.1877 157° South  Level FlightAware Approximate
07:46PM -0.4466 -82.1370 157° South  Level FlightAware Approximate
07:47PM -0.5653 -82.0863 157° South  Level FlightAware Approximate
07:48PM -0.6840 -82.0356 157° South  Level FlightAware Approximate
07:49PM -0.8027 -81.9848 157° South  Level FlightAware Approximate
07:50PM -0.9214 -81.9341 157° South  Level FlightAware Approximate
07:51PM -1.0401 -81.8834 157° South  Level FlightAware Approximate
07:52PM -1.1588 -81.8326 157° South  Level FlightAware Approximate
07:53PM -1.2775 -81.7819 157° South  Level FlightAware Approximate
07:54PM -1.3961 -81.7311 157° South  Level FlightAware Approximate
07:55PM -1.5148 -81.6804 157° South  Level FlightAware Approximate
07:56PM -1.6335 -81.6296 157° South  Level FlightAware Approximate
07:57PM -1.7522 -81.5789 157° South  Level FlightAware Approximate
07:58PM -1.8709 -81.5281 157° South  Level FlightAware Approximate
07:59PM -1.9896 -81.4773 157° South  Level FlightAware Approximate
08:00PM -2.1083 -81.4265 157° South  Level FlightAware Approximate
08:01PM -2.2269 -81.3757 157° South  Level FlightAware Approximate
08:02PM -2.3456 -81.3249 157° South  Level FlightAware Approximate
08:03PM -2.4643 -81.2741 157° South  Level FlightAware Approximate
08:04PM -2.5830 -81.2233 157° South  Level FlightAware Approximate
08:05PM -2.7016 -81.1725 157° South  Level FlightAware Approximate
08:06PM -2.8203 -81.1216 157° South  Level FlightAware Approximate
08:07PM -2.9390 -81.0708 157° South  Level FlightAware Approximate
08:08PM -3.0577 -81.0199 157° South  Level FlightAware Approximate
08:09PM -3.1763 -80.9691 157° South  Level FlightAware Approximate
08:10PM -3.2950 -80.9182 157° South  Level FlightAware Approximate
08:11PM -3.4136 -80.8673 157° South  Level FlightAware Approximate
08:12PM -3.5323 -80.8164 157° South  Level FlightAware Approximate
08:13PM -3.6509 -80.7655 157° South  Level FlightAware Approximate
08:14PM -3.7696 -80.7145 157° South  Level FlightAware Approximate
08:15PM -3.8882 -80.6636 157° South  Level FlightAware Approximate
08:16PM -4.0069 -80.6126 157° South  Level FlightAware Approximate
08:17PM -4.1255 -80.5616 157° South  Level FlightAware Approximate
08:18PM -4.2442 -80.5107 157° South  Level FlightAware Approximate
08:19PM -4.3628 -80.4596 157° South  Level FlightAware Approximate
08:20PM -4.4814 -80.4086 157° South  Level FlightAware Approximate
08:21PM -4.6000 -80.3576 157° South  Level FlightAware Approximate
08:22PM -4.7187 -80.3065 157° South  Level FlightAware Approximate
08:23PM -4.8373 -80.2554 157° South  Level FlightAware Approximate
08:24PM -4.9559 -80.2044 157° South  Level FlightAware Approximate
08:25PM -5.0745 -80.1533 157° South  Level FlightAware Approximate
08:26PM -5.1931 -80.1021 157° South  Level FlightAware Approximate
08:27PM -5.3117 -80.0510 157° South  Level FlightAware Approximate
08:28PM -5.4303 -79.9998 157° South  Level FlightAware Approximate
08:29PM -5.5489 -79.9486 157° South  Level FlightAware Approximate
08:30PM -5.6675 -79.8974 157° South  Level FlightAware Approximate
08:31PM -5.7861 -79.8462 157° South  Level FlightAware Approximate
08:32PM -5.9047 -79.7949 157° South  Level FlightAware Approximate
08:33PM -6.0233 -79.7437 157° South  Level FlightAware Approximate
08:34PM -6.1418 -79.6924 157° South  Level FlightAware Approximate
08:35PM -6.2604 -79.6410 157° South  Level FlightAware Approximate
08:36PM -6.3790 -79.5897 157° South  Level FlightAware Approximate
08:37PM -6.4975 -79.5383 157° South  Level FlightAware Approximate
08:38PM -6.6161 -79.4869 157° South  Level FlightAware Approximate
08:39PM -6.7346 -79.4355 157° South  Level FlightAware Approximate
08:40PM -6.8532 -79.3841 157° South  Level FlightAware Approximate
08:41PM -6.9717 -79.3326 157° South  Level FlightAware Approximate
08:42PM -7.0902 -79.2811 157° South  Level FlightAware Approximate
08:43PM -7.2088 -79.2296 157° South  Level FlightAware Approximate
08:44PM -7.3273 -79.1781 157° South  Level FlightAware Approximate
08:45PM -7.4458 -79.1265 157° South  Level FlightAware Approximate
08:46PM -7.5643 -79.0749 157° South  Level FlightAware Approximate
08:47PM -7.6828 -79.0233 157° South  Level FlightAware Approximate
08:48PM -7.8013 -78.9716 157° South  Level FlightAware Approximate
08:49PM -7.9198 -78.9199 157° South  Level FlightAware Approximate
08:50PM -8.0383 -78.8682 157° South  Level FlightAware Approximate
08:51PM -8.1567 -78.8165 157° South  Level FlightAware Approximate
08:52PM -8.2752 -78.7647 157° South  Level FlightAware Approximate
08:53PM -8.3937 -78.7129 157° South  Level FlightAware Approximate
08:54PM -8.5121 -78.6610 157° South  Level FlightAware Approximate
08:55PM -8.6306 -78.6092 157° South  Level FlightAware Approximate
08:56PM -8.7490 -78.5573 157° South  Level FlightAware Approximate
08:57PM -8.8675 -78.5053 157° South  Level FlightAware Approximate
08:58PM -8.9859 -78.4533 157° South  Level FlightAware Approximate
08:59PM -9.1043 -78.4014 157° South  Level FlightAware Approximate
09:00PM -9.2227 -78.3493 157° South  Level FlightAware Approximate
09:01PM -9.3411 -78.2972 157° South  Level FlightAware Approximate
09:02PM -9.4595 -78.2451 157° South  Level FlightAware Approximate
09:03PM -9.5779 -78.1930 157° South  Level FlightAware Approximate
09:04PM -9.6963 -78.1408 157° South  Level FlightAware Approximate
09:05PM -9.8147 -78.0886 157° South  Level FlightAware Approximate
09:06PM -9.9331 -78.0363 156° South  Level FlightAware Approximate
09:07PM -10.0514 -77.9840 156° South  Level FlightAware Approximate
09:08PM -10.1698 -77.9317 156° South  Level FlightAware Approximate
09:09PM -10.2881 -77.8793 156° South  Level FlightAware Approximate
09:10PM -10.4064 -77.8269 156° South  Level FlightAware Approximate
09:11PM -10.5248 -77.7745 156° South  Level FlightAware Approximate
09:12PM -10.6431 -77.7220 156° South  Level FlightAware Approximate
09:13PM -10.7614 -77.6694 156° South  Level FlightAware Approximate
09:14PM -10.8797 -77.6169 156° South  Level FlightAware Approximate
09:15PM -10.9980 -77.5643 156° South  Level FlightAware Approximate
09:16PM -11.1163 -77.5116 156° South  Level FlightAware Approximate
09:17PM -11.2345 -77.4589 156° South  Level FlightAware Approximate
09:18PM -11.3528 -77.4062 156° South  Level FlightAware Approximate
09:19PM -11.4710 -77.3534 156° South  Level FlightAware Approximate
09:20PM -11.5893 -77.3006 156° South  Level FlightAware Approximate
09:21PM -11.7075 -77.2477 156° South  Level FlightAware Approximate
09:22PM -11.8257 -77.1948 156° South  Level FlightAware Approximate
09:23PM -11.9439 -77.1418 156° South  Level FlightAware Approximate
09:24PM -12.0551 -77.0761 144° Southeast  Level FlightAware Approximate
09:25PM -12.1598 -76.9990 144° Southeast  Level FlightAware Approximate
09:26PM -12.2646 -76.9218 144° Southeast  Level FlightAware Approximate
09:27PM -12.3693 -76.8445 144° Southeast  Level FlightAware Approximate
09:28PM -12.4740 -76.7672 144° Southeast  Level FlightAware Approximate
09:29PM -12.5786 -76.6898 144° Southeast  Level FlightAware Approximate
09:30PM -12.6833 -76.6124 144° Southeast  Level FlightAware Approximate
09:31PM -12.7879 -76.5349 144° Southeast  Level FlightAware Approximate
09:32PM -12.8925 -76.4573 144° Southeast  Level FlightAware Approximate
09:33PM -12.9970 -76.3796 144° Southeast  Level FlightAware Approximate
09:34PM -13.1016 -76.3019 144° Southeast  Level FlightAware Approximate
09:35PM -13.2061 -76.2242 144° Southeast  Level FlightAware Approximate
09:36PM -13.3106 -76.1463 144° Southeast  Level FlightAware Approximate
09:37PM -13.4151 -76.0684 144° Southeast  Level FlightAware Approximate
09:38PM -13.5195 -75.9904 144° Southeast  Level FlightAware Approximate
09:39PM -13.6240 -75.9124 144° Southeast  Level FlightAware Approximate
09:40PM -13.7284 -75.8343 144° Southeast  Level FlightAware Approximate
09:41PM -13.8328 -75.7561 144° Southeast  Level FlightAware Approximate
09:42PM -13.9371 -75.6778 144° Southeast  Level FlightAware Approximate
09:43PM -14.0414 -75.5995 144° Southeast  Level FlightAware Approximate
09:44PM -14.1458 -75.5211 144° Southeast  Level FlightAware Approximate
09:45PM -14.2500 -75.4427 144° Southeast  Level FlightAware Approximate
09:46PM -14.3543 -75.3641 144° Southeast  Level FlightAware Approximate
09:47PM -14.4585 -75.2855 144° Southeast  Level FlightAware Approximate
09:48PM -14.5627 -75.2068 144° Southeast  Level FlightAware Approximate
09:49PM -14.6669 -75.1281 144° Southeast  Level FlightAware Approximate
09:50PM -14.7711 -75.0492 144° Southeast  Level FlightAware Approximate
09:51PM -14.8752 -74.9703 144° Southeast  Level FlightAware Approximate
09:52PM -14.9793 -74.8913 144° Southeast  Level FlightAware Approximate
09:53PM -15.0833 -74.8123 144° Southeast  Level FlightAware Approximate
09:54PM -15.1874 -74.7331 144° Southeast  Level FlightAware Approximate
09:55PM -15.2914 -74.6539 144° Southeast  Level FlightAware Approximate
09:56PM -15.3954 -74.5746 144° Southeast  Level FlightAware Approximate
09:57PM -15.4993 -74.4952 144° Southeast  Level FlightAware Approximate
09:58PM -15.6033 -74.4158 144° Southeast  Level FlightAware Approximate
09:59PM -15.7072 -74.3362 144° Southeast  Level FlightAware Approximate
10:00PM -15.8110 -74.2566 144° Southeast  Level FlightAware Approximate
10:01PM -15.9149 -74.1769 144° Southeast  Level FlightAware Approximate
10:02PM -16.0187 -74.0971 144° Southeast  Level FlightAware Approximate
10:03PM -16.1225 -74.0173 144° Southeast  Level FlightAware Approximate
10:04PM -16.2262 -73.9373 144° Southeast  Level FlightAware Approximate
10:05PM -16.3299 -73.8573 143° Southeast  Level FlightAware Approximate
10:06PM -16.4336 -73.7772 143° Southeast  Level FlightAware Approximate
10:07PM -16.5373 -73.6969 143° Southeast  Level FlightAware Approximate
10:08PM -16.6409 -73.6167 143° Southeast  Level FlightAware Approximate
10:09PM -16.7445 -73.5363 143° Southeast  Level FlightAware Approximate
10:10PM -16.8481 -73.4558 143° Southeast  Level FlightAware Approximate
10:11PM -16.9516 -73.3753 143° Southeast  Level FlightAware Approximate
10:12PM -17.0551 -73.2946 143° Southeast  Level FlightAware Approximate
10:13PM -17.1586 -73.2139 143° Southeast  Level FlightAware Approximate
10:14PM -17.2621 -73.1331 143° Southeast  Level FlightAware Approximate
10:15PM -17.3655 -73.0521 143° Southeast  Level FlightAware Approximate
10:16PM -17.4688 -72.9712 143° Southeast  Level FlightAware Approximate
10:17PM -17.5722 -72.8901 143° Southeast  Level FlightAware Approximate
10:18PM -17.6755 -72.8089 143° Southeast  Level FlightAware Approximate
10:19PM -17.7788 -72.7276 143° Southeast  Level FlightAware Approximate
10:20PM -17.8820 -72.6462 143° Southeast  Level FlightAware Approximate
10:21PM -17.9853 -72.5647 143° Southeast  Level FlightAware Approximate
10:22PM -18.0884 -72.4832 143° Southeast  Level FlightAware Approximate
10:23PM -18.1916 -72.4015 143° Southeast  Level FlightAware Approximate
10:24PM -18.2947 -72.3197 143° Southeast  Level FlightAware Approximate
10:25PM -18.3978 -72.2379 143° Southeast  Level FlightAware Approximate
10:26PM -18.5008 -72.1559 143° Southeast  Level FlightAware Approximate
10:27PM -18.6038 -72.0739 143° Southeast  Level FlightAware Approximate
10:28PM -18.7068 -71.9917 143° Southeast  Level FlightAware Approximate
10:29PM -18.8097 -71.9095 143° Southeast  Level FlightAware Approximate
10:30PM -18.9126 -71.8271 143° Southeast  Level FlightAware Approximate
10:31PM -19.0154 -71.7447 143° Southeast  Level FlightAware Approximate
10:32PM -19.1183 -71.6621 143° Southeast  Level FlightAware Approximate
10:33PM -19.2211 -71.5795 143° Southeast  Level FlightAware Approximate
10:34PM -19.3238 -71.4967 143° Southeast  Level FlightAware Approximate
10:35PM -19.4265 -71.4138 143° Southeast  Level FlightAware Approximate
10:36PM -19.5292 -71.3309 143° Southeast  Level FlightAware Approximate
10:37PM -19.6318 -71.2478 143° Southeast  Level FlightAware Approximate
10:38PM -19.7344 -71.1646 143° Southeast  Level FlightAware Approximate
10:39PM -19.8370 -71.0813 143° Southeast  Level FlightAware Approximate
10:40PM -19.9395 -70.9979 143° Southeast  Level FlightAware Approximate
10:41PM -20.0420 -70.9144 143° Southeast  Level FlightAware Approximate
10:42PM -20.1444 -70.8308 143° Southeast  Level FlightAware Approximate
10:43PM -20.2468 -70.7470 143° Southeast  Level FlightAware Approximate
10:44PM -20.3492 -70.6632 142° Southeast  Level FlightAware Approximate
10:45PM -20.4515 -70.5793 142° Southeast  Level FlightAware Approximate
10:46PM -20.5538 -70.4952 142° Southeast  Level FlightAware Approximate
10:47PM -20.6560 -70.4110 142° Southeast  Level FlightAware Approximate
10:48PM -20.7582 -70.3268 142° Southeast  Level FlightAware Approximate
10:49PM -20.8604 -70.2423 142° Southeast  Level FlightAware Approximate
10:50PM -20.9625 -70.1578 142° Southeast  Level FlightAware Approximate
10:51PM -21.0646 -70.0732 142° Southeast  Level FlightAware Approximate
10:52PM -21.1666 -69.9885 142° Southeast  Level FlightAware Approximate
10:53PM -21.2686 -69.9036 142° Southeast  Level FlightAware Approximate
10:54PM -21.3706 -69.8186 142° Southeast  Level FlightAware Approximate
10:55PM -21.4725 -69.7335 142° Southeast  Level FlightAware Approximate
10:56PM -21.5744 -69.6483 142° Southeast  Level FlightAware Approximate
10:57PM -21.6762 -69.5630 142° Southeast  Level FlightAware Approximate
10:58PM -21.7780 -69.4775 142° Southeast  Level FlightAware Approximate
10:59PM -21.8797 -69.3919 142° Southeast  Level FlightAware Approximate
11:00PM -21.9814 -69.3062 142° Southeast  Level FlightAware Approximate
11:01PM -22.0830 -69.2204 142° Southeast  Level FlightAware Approximate
11:02PM -22.1846 -69.1345 142° Southeast  Level FlightAware Approximate
11:03PM -22.2862 -69.0484 142° Southeast  Level FlightAware Approximate
11:04PM -22.3877 -68.9622 142° Southeast  Level FlightAware Approximate
11:05PM -22.4892 -68.8759 142° Southeast  Level FlightAware Approximate
11:06PM -22.5564 -68.7577 119° Southeast  Level FlightAware Approximate
11:07PM -22.6195 -68.6357 119° Southeast  Level FlightAware Approximate
11:08PM -22.6824 -68.5136 119° Southeast  Level FlightAware Approximate
11:09PM -22.7453 -68.3914 119° Southeast  Level FlightAware Approximate
11:10PM -22.8081 -68.2691 119° Southeast  Level FlightAware Approximate
11:11PM -22.8708 -68.1467 119° Southeast  Level FlightAware Approximate
11:12PM -22.9333 -68.0241 119° Southeast  Level FlightAware Approximate
11:13PM -22.9958 -67.9014 119° Southeast  Level FlightAware Approximate
11:14PM -23.0582 -67.7787 119° Southeast  Level FlightAware Approximate
11:15PM -23.1205 -67.6558 119° Southeast  Level FlightAware Approximate
11:16PM -23.1827 -67.5328 119° Southeast  Level FlightAware Approximate
11:17PM -23.2448 -67.4096 119° Southeast  Level FlightAware Approximate
11:18PM -23.3068 -67.2864 119° Southeast  Level FlightAware Approximate
11:19PM -23.3687 -67.1630 119° Southeast  Level FlightAware Approximate
11:20PM -23.4306 -67.0396 119° Southeast  Level FlightAware Approximate
11:21PM -23.4923 -66.9160 119° Southeast  Level FlightAware Approximate
11:22PM -23.5539 -66.7923 119° Southeast  Level FlightAware Approximate
11:23PM -23.6157 -66.6687 119° Southeast  Level FlightAware Approximate
11:24PM -23.6775 -66.5450 119° Southeast  Level FlightAware Approximate
11:25PM -23.7387 -66.4208 115° Southeast  Level FlightAware Approximate
11:26PM -23.7948 -66.2939 119° Southeast  Level FlightAware Approximate
11:27PM -23.8567 -66.1700 119° Southeast  Level FlightAware Approximate
11:28PM -23.9233 -66.0496 117° Southeast  Level FlightAware Approximate
11:29PM -23.9815 -65.9235 117° Southeast  Level FlightAware Approximate
11:30PM -24.0424 -65.7990 119° Southeast  Level FlightAware Approximate
11:31PM -24.1045 -65.6751 119° Southeast  Level FlightAware Approximate
11:32PM -24.1666 -65.5510 119° Southeast  Level FlightAware Approximate
11:33PM -24.2286 -65.4269 119° Southeast  Level FlightAware Approximate
11:34PM -24.2904 -65.3026 119° Southeast  Level FlightAware Approximate
11:35PM -24.3438 -65.1738 114° Southeast  Level FlightAware Approximate
11:36PM -24.4117 -65.0784 222° Southwest  Level FlightAware Approximate
11:37PM -24.5072 -65.1738 222° Southwest  Level FlightAware Approximate
11:38PM -24.6076 -65.2629 218° Southwest  Level FlightAware Approximate
11:39PM -24.7119 -65.3464 214° Southwest  Level FlightAware Approximate
11:40PM -24.8037 -65.4370 222° Southwest  Level FlightAware Approximate
11:41PM -24.8500 -65.4833 222° Southwest  Level FlightAware Approximate
11:42PM -24.8559 -65.4862 222° Southwest  Level Estimated
11:43PM -24.8500 -65.4833 222° Southwest  Level FlightAware Approximate
11:44PM -24.8559 -65.4862 222° Southwest  Level Estimated
11:45PM -24.8500 -65.4833 222° Southwest  Level FlightAware Approximate
11:46PM -24.8559 -65.4862 222° Southwest  Level Estimated
11:47PM -24.8500 -65.4833 222° Southwest  Level FlightAware Approximate
11:48PM -24.8559 -65.4862 222° Southwest  Level Estimated
11:49PM -24.8500 -65.4833 222° Southwest  Level FlightAware Approximate
11:50PM -24.8559 -65.4862 222° Southwest  Level Estimated
11:51PM -24.8500 -65.4833 222° Southwest  Level FlightAware Approximate